Flight Track Log - Related Links

Times and Time Zones

All times are in EDT time to prevent confusion due to time zone crossing. See the UAL258 flight status page for this flight to view local times or setup timezone preferences in your user account.

Time Position Orientation Groundspeed Altitude Reporting Facility
EDT Latitude Longitude Course Direction KTS MPH feet Rate Location/Type
Mon 06:07:57 AM 39.1833 -76.7167 211° Southwest 173 199 1,400  Level Potomac TRACON
Mon 06:10:00 AM 39.2000 -77.0204 270° West  Level FlightAware Approximate
Mon 06:10:19 AM 39.2022 -76.8906 278° West 227 261 7,400  Level Washington Center
Mon 06:11:00 AM 39.2000 -77.1416 270° West  Level FlightAware Approximate
Mon 06:11:20 AM 39.2139 -76.9872 279° West 254 292 10,600  Level Washington Center
Mon 06:12:00 AM 39.1266 -77.2109 211° Southwest  Level FlightAware Approximate
Mon 06:12:19 AM 39.2103 -77.0969 268° West 286 329 12,500  Level Washington Center
Mon 06:13:00 AM 39.0462 -77.2734 211° Southwest  Level FlightAware Approximate
Mon 06:13:21 AM 39.1675 -77.2006 242° Southwest 321 369 15,500  Level Washington Center
Mon 06:14:19 AM 39.0831 -77.2708 213° Southwest 323 372 17,900 2,237 Climbing Washington Center
Mon 06:15:19 AM 39.0606 -77.3906 256° West 331 381 19,900 2,380 Climbing Washington Center
Mon 06:16:20 AM 39.0458 -77.5319 262° West 348 400 22,700 2,115 Climbing Washington Center
Mon 06:17:21 AM 39.0311 -77.6625 262° West 370 426 24,200 1,576 Climbing Washington Center
Mon 06:18:18 AM 39.0164 -77.7822 261° West 376 433 25,800 1,412 Climbing Washington Center
Mon 06:19:20 AM 38.9969 -77.9314 261° West 382 440 27,000 595 Climbing Washington Center
Mon 06:20:19 AM 38.9797 -78.0644 261° West 388 447 27,000 605 Level Washington Center
Mon 06:21:19 AM 38.9622 -78.2053 261° West 394 453 28,200 1,289 Climbing Washington Center
Mon 06:22:20 AM 38.9633 -78.3414 271° West 394 453 29,600 1,361 Climbing Washington Center
Mon 06:23:18 AM 38.9703 -78.4831 274° West 389 448 30,900 1,220 Climbing Washington Center
Mon 06:24:18 AM 38.9731 -78.6247 271° West 394 453 32,000 1,091 Climbing Washington Center
Mon 06:25:19 AM 38.9778 -78.7664 272° West 400 460 33,100 1,250 Climbing Washington Center
Mon 06:26:18 AM 38.9803 -78.9081 271° West 406 467 34,500 1,200 Climbing Washington Center
Mon 06:27:19 AM 38.9847 -79.0500 272° West 406 467 35,500 1,024 Climbing Washington Center
Mon 06:28:21 AM 38.9889 -79.1889 272° West 406 467 36,600 1,000 Climbing Washington Center
Mon 06:29:19 AM 38.9908 -79.3306 271° West 406 467 37,500 706 Climbing Washington Center
Mon 06:30:20 AM 38.9950 -79.4644 272° West 406 467 38,000 248 Climbing Washington Center
Mon 06:31:20 AM 38.9986 -79.6061 272° West 401 461 38,000  Level Washington Center
Mon 06:32:19 AM 39.0000 -79.7506 271° West 406 467 38,000  Level Washington Center
Mon 06:33:19 AM 39.0039 -79.8764 272° West 401 461 38,000  Level Washington Center
Mon 06:34:21 AM 39.0072 -80.0156 272° West 401 461 38,000  Level Washington Center
Mon 06:35:14 AM 39.0056 -80.1333 269° West 392 451 38,000  Level Indianapolis Center
Mon 06:36:15 AM 39.0064 -80.2761 270° West 398 458 38,000  Level Indianapolis Center
Mon 06:37:15 AM 39.0094 -80.4178 272° West 397 457 38,000  Level Indianapolis Center
Mon 06:38:15 AM 39.0500 -80.5439 293° West 388 447 38,000  Level Indianapolis Center
Mon 06:39:16 AM 39.1036 -80.6639 300° West 387 445 38,000  Level Indianapolis Center
Mon 06:40:16 AM 39.1569 -80.7850 300° West 389 448 38,000  Level Indianapolis Center
Mon 06:41:17 AM 39.2114 -80.9050 300° West 389 448 38,000  Level Indianapolis Center
Mon 06:42:17 AM 39.2744 -81.0500 299° West 388 447 38,000  Level Indianapolis Center
Mon 06:43:18 AM 39.3286 -81.1708 300° West 391 450 38,000  Level Indianapolis Center
Mon 06:44:18 AM 39.3808 -81.2922 299° West 389 448 38,000  Level Indianapolis Center
Mon 06:45:18 AM 39.4333 -81.4119 300° West 386 444 38,000  Level Indianapolis Center
Mon 06:46:19 AM 39.4861 -81.5328 300° West 387 445 38,000  Level Indianapolis Center
Mon 06:47:19 AM 39.5381 -81.6536 299° West 386 444 38,000  Level Indianapolis Center
Mon 06:48:20 AM 39.5903 -81.7733 300° West 383 441 38,000  Level Indianapolis Center
Mon 06:49:20 AM 39.6417 -81.8956 299° West 385 443 38,000  Level Indianapolis Center
Mon 06:50:21 AM 39.6944 -82.0158 300° West 384 442 38,000  Level Indianapolis Center
Mon 06:51:21 AM 39.7483 -82.1439 299° West 383 441 38,000 -50 Level Indianapolis Center
Mon 06:52:22 AM 39.7997 -82.2661 299° West 382 440 37,900 -50 Descending Indianapolis Center
Mon 06:53:22 AM 39.8517 -82.3875 299° West 383 441 37,900  Level Indianapolis Center
Mon 06:54:23 AM 39.9028 -82.5097 299° West 382 440 37,900 49 Level Indianapolis Center
Mon 06:55:24 AM 39.9542 -82.6311 299° West 382 440 38,000 50 Climbing Indianapolis Center
Mon 06:56:24 AM 40.0044 -82.7533 298° West 379 436 38,000  Level Indianapolis Center
Mon 06:57:25 AM 40.0561 -82.8744 299° West 380 437 38,000  Level Indianapolis Center
Mon 06:58:25 AM 40.1069 -82.9969 299° West 382 440 38,000  Level Indianapolis Center
Mon 06:59:26 AM 40.1569 -83.1192 298° West 381 438 38,000  Level Indianapolis Center
Mon 07:00:26 AM 40.2078 -83.2425 298° West 384 442 38,000  Level Indianapolis Center
Mon 07:01:27 AM 40.2572 -83.3653 298° West 382 440 38,000 -49 Level Indianapolis Center
Mon 07:02:28 AM 40.3075 -83.4872 298° West 380 437 37,900 -50 Descending Indianapolis Center
Mon 07:03:28 AM 40.3575 -83.6117 298° West 383 441 37,900 50 Level Indianapolis Center
Mon 07:04:29 AM 40.4081 -83.7361 298° West 385 443 38,000  Climbing Indianapolis Center
Mon 07:05:30 AM 40.4575 -83.8597 298° West 381 438 37,900 -50 Descending Indianapolis Center
Mon 07:06:30 AM 40.5078 -83.9844 298° West 384 442 37,900 50 Level Indianapolis Center
Mon 07:07:31 AM 40.5581 -84.1100 298° West 386 444 38,000  Climbing Indianapolis Center
Mon 07:08:32 AM 40.6081 -84.2350 298° West 384 442 37,900 -50 Descending Indianapolis Center
Mon 07:09:32 AM 40.6569 -84.3619 297° West 385 443 37,900 50 Level Indianapolis Center
Mon 07:10:33 AM 40.7086 -84.4894 298° West 390 449 38,000 50 Climbing Indianapolis Center
Mon 07:11:33 AM 40.7594 -84.6186 297° West 393 452 38,000  Level Indianapolis Center
Mon 07:11:51 AM 40.7725 -84.6539 296° West 392 451 38,000  Level Chicago Center
Mon 07:12:51 AM 40.8219 -84.7814 297° West 391 450 38,000  Level Chicago Center
Mon 07:13:52 AM 40.8722 -84.9086 298° West 391 450 38,000  Level Chicago Center
Mon 07:14:52 AM 40.9217 -85.0364 297° West 391 450 38,000 -298 Level Chicago Center
Mon 07:15:53 AM 40.9708 -85.1633 297° West 388 447 37,400 -793 Descending Chicago Center
Mon 07:16:53 AM 41.0386 -85.2761 309° West 395 455 36,400 -992 Descending Chicago Center
Mon 07:17:54 AM 41.1117 -85.3897 311° West 402 463 35,400 -992 Descending Chicago Center
Mon 07:18:54 AM 41.1783 -85.5108 306° West 407 468 34,400 -2,281 Descending Chicago Center
Mon 07:19:55 AM 41.2128 -85.6619 287° West 421 484 30,800 -3,295 Descending Chicago Center
Mon 07:20:56 AM 41.2444 -85.8156 285° West 429 494 27,700 -2,876 Descending Chicago Center
Mon 07:21:56 AM 41.2753 -85.9675 285° West 425 489 25,000 -2,529 Descending Chicago Center
Mon 07:22:57 AM 41.3067 -86.1136 286° West 413 475 22,600 -2,331 Descending Chicago Center
Mon 07:23:57 AM 41.3328 -86.2531 284° West 395 455 20,300 -2,083 Descending Chicago Center
Mon 07:24:58 AM 41.3622 -86.3883 286° West 383 441 18,400 -1,574 Descending Chicago Center
Mon 07:25:59 AM 41.3881 -86.5211 285° West 371 427 17,100 -1,388 Descending Chicago Center
Mon 07:26:59 AM 41.4158 -86.6508 286° West 365 420 15,600 -1,537 Descending Chicago Center
Mon 07:28:00 AM 41.4439 -86.7956 285° West 356 410 14,000 -1,525 Descending Chicago Center
Mon 07:29:01 AM 41.4686 -86.9206 285° West 351 404 12,500 -1,438 Descending Chicago Center
Mon 07:30:01 AM 41.4931 -87.0417 285° West 342 394 11,100 -744 Descending Chicago Center
Mon 07:31:02 AM 41.5167 -87.1606 285° West 334 384 11,000 -49 Descending Chicago Center
Mon 07:32:03 AM 41.5817 -87.2614 311° West 356 410 11,000  Level Chicago Center
Mon 07:33:03 AM 41.6450 -87.3603 311° West 354 407 11,000  Level Chicago Center
Mon 07:34:04 AM 41.7072 -87.4594 310° West 352 405 11,000 -49 Level Chicago Center
Mon 07:35:05 AM 41.7711 -87.5603 310° West 357 411 10,900 -496 Descending Chicago Center
Mon 07:36:05 AM 41.8297 -87.6539 310° West 330 380 10,000 -1,240 Descending Chicago Center
Mon 07:37:06 AM 41.8647 -87.7736 291° West 292 336 8,400 -1,388 Descending Chicago Center
Mon 07:38:06 AM 41.8922 -87.8725 291° West 288 331 7,200 -724 Descending Chicago Center
Mon 07:39:02 AM 41.9167 -87.9500 293° West 254 292 7,000 -103 Descending Chicago TRACON
Mon 07:40:02 AM 41.9667 -88.0333 309° West 253 291 7,000  Level Chicago TRACON
Mon 07:41:02 AM 42.0000 -88.1000 304° West 217 250 7,000  Level Chicago TRACON
Mon 07:42:03 AM 42.0333 -88.1500 312° West 206 237 7,000  Level Chicago TRACON
Mon 07:42:57 AM 42.0667 -88.2000 312° West 202 232 7,000  Level Chicago TRACON
Mon 07:43:57 AM 42.1000 -88.2667 304° West 202 232 7,000  Level Chicago TRACON
Mon 07:45:03 AM 42.1500 -88.3167 323° Northwest 202 232 7,000  Level Chicago TRACON
Mon 07:46:04 AM 42.1833 -88.3667 312° West 200 230 7,000 -300 Level Chicago TRACON
Mon 07:47:03 AM 42.2333 -88.3333 26° Northeast 194 223 6,400 -743 Descending Chicago TRACON
Mon 07:47:57 AM 42.2667 -88.2833 48° Northeast 181 208 5,600 -771 Descending Chicago TRACON
Mon 07:48:13 AM 42.2600 -88.2858 196° South 191 220 5,500 -468 Descending Chicago Center
Mon 07:49:14 AM 42.2372 -88.2183 114° Southeast 167 192 5,000 -246 Descending Chicago Center
Mon 07:50:15 AM 42.2061 -88.1767 135° Southeast 161 185 5,000  Level Chicago Center
Mon 07:51:15 AM 42.1719 -88.1358 138° Southeast 165 190 5,000 -198 Level Chicago Center
Mon 07:52:16 AM 42.1378 -88.1006 143° Southeast 160 184 4,600 -606 Descending Chicago Center
Mon 07:53:04 AM 42.1167 -88.0667 130° Southeast 154 177 3,900 -875 Descending Chicago TRACON

Login

Don't have an account? Register now (free) for customized features, flight alerts, and more!